createdAt,value
2023-06-10T00:02:51.291Z,18.75
2023-06-10T00:05:54.458Z,18.74
2023-06-10T00:08:57.988Z,18.73
2023-06-10T00:12:01.867Z,18.73
2023-06-10T00:15:08.559Z,18.71
2023-06-10T00:18:12.913Z,18.71
2023-06-10T00:21:16.538Z,18.68
2023-06-10T00:24:19.960Z,18.67
2023-06-10T00:27:23.184Z,18.65
2023-06-10T00:30:26.337Z,18.65
2023-06-10T00:33:29.851Z,18.64
2023-06-10T00:36:32.849Z,18.63
2023-06-10T00:39:35.916Z,18.63
2023-06-10T00:42:40.918Z,18.62
2023-06-10T00:45:43.986Z,18.62
2023-06-10T00:48:47.687Z,18.60
2023-06-10T00:51:52.017Z,18.60
2023-06-10T00:54:55.748Z,18.59
2023-06-10T00:57:58.948Z,18.59
2023-06-10T01:01:03.028Z,18.60
2023-06-10T01:04:06.052Z,18.59
2023-06-10T01:07:10.524Z,18.59
2023-06-10T01:10:33.965Z,18.59
2023-06-10T01:13:38.614Z,18.58
2023-06-10T01:16:42.125Z,18.57
2023-06-10T01:19:56.123Z,18.56
2023-06-10T01:23:04.233Z,18.55
2023-06-10T01:26:11.675Z,18.54
2023-06-10T01:29:17.783Z,18.54
2023-06-10T01:32:30.204Z,18.53
2023-06-10T01:35:34.303Z,18.52
2023-06-10T01:38:48.590Z,18.51
2023-06-10T01:41:53.283Z,18.50
2023-06-10T01:44:56.401Z,18.49
2023-06-10T01:47:59.518Z,18.49
2023-06-10T01:51:03.234Z,18.48
2023-06-10T01:54:07.248Z,18.47
2023-06-10T01:57:11.468Z,18.47
2023-06-10T02:00:15.158Z,18.47
2023-06-10T02:03:19.548Z,18.47
2023-06-10T02:06:22.768Z,18.47
2023-06-10T02:09:26.342Z,18.47
2023-06-10T02:12:29.364Z,18.47
2023-06-10T02:15:32.430Z,18.47
2023-06-10T02:18:35.441Z,18.47
2023-06-10T02:21:38.536Z,18.47
2023-06-10T02:24:41.591Z,18.46
2023-06-10T02:27:44.654Z,18.46
2023-06-10T02:30:48.245Z,18.46
2023-06-10T02:33:51.443Z,18.45
2023-06-10T02:36:54.531Z,18.44
2023-06-10T02:39:58.206Z,18.44
2023-06-10T02:43:01.521Z,18.43
2023-06-10T02:46:04.904Z,18.44
2023-06-10T02:49:08.287Z,18.43
2023-06-10T02:52:12.589Z,18.43
2023-06-10T02:55:16.394Z,18.43
2023-06-10T02:58:23.498Z,18.42
2023-06-10T03:01:26.736Z,18.43
2023-06-10T03:04:35.121Z,18.41
2023-06-10T03:07:42.176Z,18.42
2023-06-10T03:10:45.563Z,18.42
2023-06-10T03:13:51.520Z,18.42
2023-06-10T03:16:54.936Z,18.43
2023-06-10T03:19:59.683Z,18.42
2023-06-10T03:23:02.790Z,18.42
2023-06-10T03:26:09.341Z,18.42
2023-06-10T03:29:14.518Z,18.43
2023-06-10T03:32:17.743Z,18.43
2023-06-10T03:35:21.008Z,18.43
2023-06-10T03:38:24.139Z,18.45
2023-06-10T03:41:27.628Z,18.45
2023-06-10T03:44:30.880Z,18.45
2023-06-10T03:47:38.224Z,18.46
2023-06-10T03:50:43.988Z,18.47
2023-06-10T03:53:47.300Z,18.48
2023-06-10T03:56:50.825Z,18.49
2023-06-10T03:59:55.356Z,18.49
2023-06-10T04:02:59.340Z,18.51
2023-06-10T04:06:10.157Z,18.52
2023-06-10T04:09:13.892Z,18.53
2023-06-10T04:12:17.838Z,18.54
2023-06-10T04:15:20.996Z,18.55
2023-06-10T04:18:24.458Z,18.55
2023-06-10T04:21:28.436Z,18.56
2023-06-10T04:24:32.090Z,18.56
2023-06-10T04:27:35.481Z,18.56
2023-06-10T04:30:38.531Z,18.57
2023-06-10T04:33:42.288Z,18.57
2023-06-10T04:36:45.627Z,18.58
2023-06-10T04:39:49.224Z,18.59
2023-06-10T04:42:52.589Z,18.61
2023-06-10T04:45:56.661Z,18.63
2023-06-10T04:48:59.912Z,18.65
2023-06-10T04:52:05.937Z,18.68
2023-06-10T04:55:12.485Z,18.70
2023-06-10T04:58:16.295Z,18.74
2023-06-10T05:01:19.399Z,18.75
2023-06-10T05:04:22.476Z,18.77
2023-06-10T05:07:25.501Z,18.78
2023-06-10T05:10:28.713Z,18.79
2023-06-10T05:13:31.764Z,18.82
2023-06-10T05:16:34.845Z,18.84
2023-06-10T05:19:38.520Z,18.88
2023-06-10T05:22:41.773Z,18.92
2023-06-10T05:25:44.776Z,18.94
2023-06-10T05:28:48.057Z,18.95
2023-06-10T05:31:51.212Z,18.96
2023-06-10T05:34:54.346Z,18.95
2023-06-10T05:37:57.562Z,18.96
2023-06-10T05:41:00.772Z,18.96
2023-06-10T05:44:04.023Z,18.97
2023-06-10T05:47:07.276Z,18.97
2023-06-10T05:50:11.177Z,18.99
2023-06-10T05:53:16.365Z,19.01
2023-06-10T05:56:19.628Z,19.05
2023-06-10T05:59:23.953Z,19.11
2023-06-10T06:02:27.396Z,19.21
2023-06-10T06:05:35.889Z,19.36
2023-06-10T06:08:39.150Z,19.46
2023-06-10T06:11:42.395Z,19.56
2023-06-10T06:14:45.996Z,19.72
2023-06-10T06:17:49.324Z,19.77
2023-06-10T06:20:52.564Z,19.78
2023-06-10T06:23:55.900Z,19.79
2023-06-10T06:26:59.019Z,19.79
2023-06-10T06:30:02.171Z,19.78
2023-06-10T06:33:05.735Z,19.76
2023-06-10T06:36:08.853Z,19.76
2023-06-10T06:39:11.914Z,19.76
2023-06-10T06:42:15.798Z,19.79
2023-06-10T06:45:39.079Z,19.81
2023-06-10T06:48:42.271Z,19.80
2023-06-10T06:51:45.421Z,19.81
2023-06-10T06:54:48.494Z,19.84
2023-06-10T06:57:51.504Z,19.87
2023-06-10T07:00:54.707Z,19.92
2023-06-10T07:03:58.871Z,19.97
2023-06-10T07:07:01.898Z,20.01
2023-06-10T07:10:05.384Z,20.06
2023-06-10T07:13:08.428Z,20.14
2023-06-10T07:16:11.833Z,20.17
2023-06-10T07:19:14.916Z,20.20
2023-06-10T07:22:18.010Z,20.21
2023-06-10T07:25:21.047Z,20.21
2023-06-10T07:28:24.248Z,20.18
2023-06-10T07:31:27.402Z,20.14
2023-06-10T07:34:30.484Z,20.08
2023-06-10T07:37:33.579Z,20.03
2023-06-10T07:40:36.652Z,19.95
2023-06-10T07:43:39.643Z,19.88
2023-06-10T07:46:43.058Z,19.84
2023-06-10T07:49:46.227Z,19.81
2023-06-10T07:52:49.260Z,19.81
2023-06-10T07:55:52.279Z,19.82
2023-06-10T07:58:55.303Z,19.83
2023-06-10T08:01:58.377Z,19.88
2023-06-10T08:05:01.547Z,19.96
2023-06-10T08:08:05.003Z,20.03
2023-06-10T08:11:08.043Z,20.08
2023-06-10T08:14:11.206Z,20.14
2023-06-10T08:17:14.262Z,20.16
2023-06-10T08:20:17.371Z,20.15
2023-06-10T08:23:20.881Z,20.14
2023-06-10T08:26:24.976Z,20.11
2023-06-10T08:29:28.078Z,20.09
2023-06-10T08:32:31.397Z,20.09
2023-06-10T08:35:34.621Z,20.07
2023-06-10T08:38:37.796Z,20.09
2023-06-10T08:41:46.714Z,20.10
2023-06-10T08:44:55.923Z,20.13
2023-06-10T08:48:00.595Z,20.21
2023-06-10T08:51:06.663Z,20.36
2023-06-10T08:54:20.152Z,20.52
2023-06-10T08:57:24.083Z,20.58
2023-06-10T09:00:28.649Z,20.58
2023-06-10T09:03:32.447Z,20.57
2023-06-10T09:06:36.940Z,20.56
2023-06-10T09:09:40.094Z,20.55
2023-06-10T09:12:44.954Z,20.56
2023-06-10T09:15:50.187Z,20.58
2023-06-10T09:18:56.220Z,20.58
2023-06-10T09:22:00.167Z,20.58
2023-06-10T09:25:11.485Z,20.62
2023-06-10T09:28:16.268Z,20.66
2023-06-10T09:31:23.139Z,20.68
2023-06-10T09:34:27.631Z,20.71
2023-06-10T09:37:30.798Z,20.75
2023-06-10T09:40:33.899Z,20.79
2023-06-10T09:43:41.508Z,20.85
2023-06-10T09:46:49.505Z,20.92
2023-06-10T09:49:56.117Z,21.01
2023-06-10T09:52:59.247Z,21.10
2023-06-10T09:56:02.862Z,21.16
2023-06-10T09:59:07.451Z,21.24
2023-06-10T10:02:15.423Z,21.33
2023-06-10T10:05:20.608Z,21.41
2023-06-10T10:08:23.997Z,21.49
2023-06-10T10:11:28.408Z,21.57
2023-06-10T10:14:34.146Z,21.62
2023-06-10T10:17:53.844Z,21.65
2023-06-10T10:21:01.772Z,21.64
2023-06-10T10:24:32.115Z,21.66
2023-06-10T10:27:42.163Z,21.72
2023-06-10T10:30:52.007Z,21.79
2023-06-10T10:34:08.546Z,21.88
2023-06-10T10:37:11.796Z,21.96
2023-06-10T10:40:15.994Z,22.03
2023-06-10T10:43:19.661Z,22.12
2023-06-10T10:46:22.917Z,22.22
2023-06-10T10:49:26.448Z,22.29
2023-06-10T10:52:52.232Z,22.37
2023-06-10T10:56:07.101Z,22.40
2023-06-10T10:59:10.326Z,22.39
2023-06-10T11:02:19.246Z,22.39
2023-06-10T11:05:36.462Z,22.39
2023-06-10T11:08:42.343Z,22.38
2023-06-10T11:11:51.790Z,22.36
2023-06-10T11:14:56.938Z,22.49
2023-06-10T11:18:21.542Z,22.60
2023-06-10T11:21:28.998Z,22.67
2023-06-10T11:24:33.105Z,22.62
2023-06-10T11:27:40.561Z,22.55
2023-06-10T11:30:43.813Z,22.47
2023-06-10T11:33:48.640Z,22.40
2023-06-10T11:36:52.612Z,22.35
2023-06-10T11:39:59.817Z,22.45
2023-06-10T11:43:05.170Z,22.60
2023-06-10T11:46:09.609Z,22.71
2023-06-10T11:49:13.294Z,22.69
2023-06-10T11:52:16.385Z,22.62
2023-06-10T11:55:19.418Z,22.50
2023-06-10T11:58:23.376Z,22.40
2023-06-10T12:01:29.514Z,22.30
2023-06-10T12:04:33.115Z,22.42
2023-06-10T12:07:36.168Z,22.47
2023-06-10T12:10:43.377Z,22.47
2023-06-10T12:13:49.717Z,22.39
2023-06-10T12:16:52.757Z,22.49
2023-06-10T12:19:55.828Z,22.83
2023-06-10T12:22:59.028Z,22.97
2023-06-10T12:26:03.147Z,23.14
2023-06-10T12:29:38.579Z,23.38
2023-06-10T12:32:47.806Z,23.79
2023-06-10T12:35:53.040Z,24.04
2023-06-10T12:39:04.029Z,24.12
2023-06-10T12:42:10.829Z,24.19
2023-06-10T12:45:14.601Z,24.23
2023-06-10T12:48:22.546Z,24.23
2023-06-10T12:51:26.721Z,24.20
2023-06-10T12:54:29.709Z,24.06
2023-06-10T12:57:32.847Z,24.15
2023-06-10T13:00:36.352Z,24.30
2023-06-10T13:03:41.409Z,24.49
2023-06-10T13:06:44.495Z,24.71
2023-06-10T13:09:50.384Z,24.90
2023-06-10T13:12:55.783Z,25.04
2023-06-10T13:15:59.024Z,25.02
2023-06-10T13:19:03.867Z,25.12
2023-06-10T13:22:06.930Z,25.12
2023-06-10T13:25:11.169Z,25.02
2023-06-10T13:28:14.774Z,24.88
2023-06-10T13:31:18.514Z,24.87
2023-06-10T13:34:21.879Z,24.97
2023-06-10T13:37:25.127Z,24.96
2023-06-10T13:40:28.223Z,24.94
2023-06-10T13:43:31.781Z,24.78
2023-06-10T13:46:34.916Z,24.56
2023-06-10T13:49:38.465Z,24.29
2023-06-10T13:52:41.628Z,24.03
2023-06-10T13:55:44.649Z,23.79
2023-06-10T13:58:47.691Z,23.59
2023-06-10T14:01:50.940Z,23.43
2023-06-10T14:04:54.153Z,23.28
2023-06-10T14:07:57.413Z,23.13
2023-06-10T14:11:00.670Z,23.06
2023-06-10T14:14:03.887Z,23.10
2023-06-10T14:17:07.351Z,23.13
2023-06-10T14:20:10.972Z,23.12
2023-06-10T14:23:14.009Z,23.08
2023-06-10T14:26:17.262Z,23.06
2023-06-10T14:29:20.693Z,23.12
2023-06-10T14:32:23.918Z,23.26
2023-06-10T14:35:27.166Z,23.34
2023-06-10T14:38:30.488Z,23.29
2023-06-10T14:41:33.595Z,23.21
2023-06-10T14:44:36.694Z,23.10
2023-06-10T14:47:39.910Z,23.02
2023-06-10T14:50:46.231Z,22.97
2023-06-10T14:53:49.352Z,22.97
2023-06-10T14:56:52.384Z,23.04
2023-06-10T14:59:57.120Z,23.13
2023-06-10T15:03:00.224Z,23.13
2023-06-10T15:06:04.285Z,23.08
2023-06-10T15:09:07.367Z,23.02
2023-06-10T15:12:13.114Z,22.95
2023-06-10T15:15:18.252Z,22.85
2023-06-10T15:18:21.488Z,22.77
2023-06-10T15:21:26.666Z,22.73
2023-06-10T15:24:29.696Z,22.69
2023-06-10T15:27:32.745Z,22.64
2023-06-10T15:30:35.892Z,22.62
2023-06-10T15:33:39.264Z,22.61
2023-06-10T15:36:42.394Z,22.61
2023-06-10T15:39:45.488Z,22.61
2023-06-10T15:42:48.578Z,22.62
2023-06-10T15:50:31.966Z,22.54
2023-06-10T15:53:35.045Z,22.49
2023-06-10T15:56:40.694Z,22.44
2023-06-10T15:59:43.755Z,22.41
2023-06-10T16:02:46.994Z,22.38
2023-06-10T16:05:50.096Z,22.36
2023-06-10T16:08:53.128Z,22.36
2023-06-10T16:11:56.213Z,22.35
2023-06-10T16:14:59.249Z,22.35
2023-06-10T16:18:02.487Z,22.35
2023-06-10T16:21:06.603Z,22.35
2023-06-10T16:24:10.248Z,22.36
2023-06-10T16:27:13.461Z,22.34
2023-06-10T16:30:16.934Z,22.27
2023-06-10T16:33:20.226Z,22.12
2023-06-10T16:36:23.378Z,21.82
2023-06-10T16:39:26.410Z,21.52
2023-06-10T16:42:29.521Z,21.24
2023-06-10T16:45:32.551Z,21.01
2023-06-10T16:48:35.700Z,20.83
2023-06-10T16:51:38.796Z,20.67
2023-06-10T16:54:42.114Z,20.55
2023-06-10T16:57:45.146Z,20.47
2023-06-10T17:00:50.617Z,20.40
2023-06-10T17:03:53.680Z,20.35
2023-06-10T17:06:57.106Z,20.32
2023-06-10T17:10:00.422Z,20.32
2023-06-10T17:13:03.550Z,20.31
2023-06-10T17:16:06.778Z,20.31
2023-06-10T17:19:09.873Z,20.31
2023-06-10T17:22:12.921Z,20.31
2023-06-10T17:25:16.254Z,20.31
2023-06-10T17:28:19.645Z,20.31
2023-06-10T17:31:22.868Z,20.33
2023-06-10T17:34:26.002Z,20.34
2023-06-10T17:37:29.108Z,20.36
2023-06-10T17:40:32.265Z,20.37
2023-06-10T17:43:35.400Z,20.38
2023-06-10T17:46:38.669Z,20.39
2023-06-10T17:49:41.810Z,20.40
2023-06-10T17:52:44.995Z,20.40
2023-06-10T17:55:48.082Z,20.40
2023-06-10T17:58:51.200Z,20.40
2023-06-10T18:01:54.300Z,20.39
2023-06-10T18:04:57.426Z,20.38
2023-06-10T18:08:00.478Z,20.37
2023-06-10T18:11:04.053Z,20.36
2023-06-10T18:14:07.292Z,20.35
2023-06-10T18:17:10.417Z,20.34
2023-06-10T18:20:14.208Z,20.33
2023-06-10T18:23:17.542Z,20.31
2023-06-10T18:26:20.864Z,20.29
2023-06-10T18:29:23.937Z,20.26
2023-06-10T18:32:27.129Z,20.25
2023-06-10T18:35:30.237Z,20.22
2023-06-10T18:38:33.316Z,20.19
2023-06-10T18:41:36.323Z,20.16
2023-06-10T18:44:39.372Z,20.14
2023-06-10T18:47:57.055Z,20.10
2023-06-10T18:51:01.539Z,20.06
2023-06-10T18:54:04.762Z,20.03
2023-06-10T18:57:11.162Z,20.00
2023-06-10T19:00:14.977Z,19.98
2023-06-10T19:03:18.323Z,19.95
2023-06-10T19:06:21.517Z,19.92
2023-06-10T19:09:24.518Z,19.89
2023-06-10T19:12:27.579Z,19.86
2023-06-10T19:15:30.676Z,19.83
2023-06-10T19:18:34.630Z,19.81
2023-06-10T19:21:37.776Z,19.79
2023-06-10T19:24:40.954Z,19.77
2023-06-10T19:27:44.083Z,19.75
2023-06-10T19:30:47.151Z,19.72
2023-06-10T19:33:50.329Z,19.69
2023-06-10T19:36:53.411Z,19.65
2023-06-10T19:39:56.930Z,19.62
2023-06-10T19:43:00.056Z,19.60
2023-06-10T19:46:03.266Z,19.57
2023-06-10T19:49:06.969Z,19.55
2023-06-10T19:52:10.475Z,19.51
2023-06-10T19:55:15.324Z,19.49
2023-06-10T19:58:18.550Z,19.46
2023-06-10T20:01:22.547Z,19.42
2023-06-10T20:04:25.934Z,19.39
2023-06-10T20:07:29.130Z,19.36
2023-06-10T20:10:32.438Z,19.31
2023-06-10T20:13:35.653Z,19.28
2023-06-10T20:16:38.788Z,19.25
2023-06-10T20:19:41.865Z,19.22
2023-06-10T20:22:44.932Z,19.18
2023-06-10T20:25:48.121Z,19.16
2023-06-10T20:28:51.333Z,19.13
2023-06-10T20:31:54.722Z,19.10
2023-06-10T20:34:58.480Z,19.07
2023-06-10T20:38:02.093Z,19.05
2023-06-10T20:41:05.204Z,19.03
2023-06-10T20:44:08.431Z,19.00
2023-06-10T20:47:11.662Z,18.97
2023-06-10T20:50:14.809Z,18.94
2023-06-10T20:53:18.232Z,18.91
2023-06-10T20:56:21.584Z,18.89
2023-06-10T20:59:24.691Z,18.87
2023-06-10T21:02:27.854Z,18.85
2023-06-10T21:05:31.232Z,18.81
2023-06-10T21:08:34.342Z,18.78
2023-06-10T21:11:38.641Z,18.76
2023-06-10T21:14:42.020Z,18.75
2023-06-10T21:17:45.457Z,18.72
2023-06-10T21:20:48.611Z,18.71
2023-06-10T21:23:51.819Z,18.69
2023-06-10T21:26:55.023Z,18.67
2023-06-10T21:29:58.534Z,18.64
2023-06-10T21:33:02.071Z,18.61
2023-06-10T21:36:05.606Z,18.57
2023-06-10T21:39:09.321Z,18.53
2023-06-10T21:42:12.351Z,18.51
2023-06-10T21:45:15.719Z,18.48
2023-06-10T21:48:19.207Z,18.45
2023-06-10T21:51:22.288Z,18.42
2023-06-10T21:54:25.540Z,18.39
2023-06-10T21:57:28.637Z,18.35
2023-06-10T22:00:31.773Z,18.31
2023-06-10T22:03:34.946Z,18.28
2023-06-10T22:06:38.407Z,18.26
2023-06-10T22:09:49.064Z,18.24
2023-06-10T22:12:52.266Z,18.21
2023-06-10T22:15:55.543Z,18.19
2023-06-10T22:18:58.519Z,18.17
2023-06-10T22:22:01.634Z,18.15
2023-06-10T22:25:05.022Z,18.13
2023-06-10T22:28:08.132Z,18.12
2023-06-10T22:31:11.375Z,18.10
2023-06-10T22:34:14.671Z,18.09
2023-06-10T22:37:18.015Z,18.08
2023-06-10T22:40:21.116Z,18.06
2023-06-10T22:43:24.201Z,18.05
2023-06-10T22:46:27.192Z,18.02
2023-06-10T22:49:30.319Z,18.01
2023-06-10T22:52:33.392Z,18.00
2023-06-10T22:55:36.456Z,18.00
2023-06-10T22:58:39.569Z,17.98
2023-06-10T23:01:42.771Z,17.95
2023-06-10T23:04:45.904Z,17.94
2023-06-10T23:07:49.199Z,17.92
2023-06-10T23:10:52.311Z,17.92
2023-06-10T23:13:55.502Z,17.91
2023-06-10T23:16:58.583Z,17.89
2023-06-10T23:20:02.825Z,17.88
2023-06-10T23:23:08.204Z,17.86
2023-06-10T23:26:11.967Z,17.85
2023-06-10T23:29:15.131Z,17.82
2023-06-10T23:32:18.337Z,17.81
2023-06-10T23:35:21.532Z,17.79
2023-06-10T23:38:24.628Z,17.78
2023-06-10T23:41:27.717Z,17.76
2023-06-10T23:44:30.739Z,17.76
2023-06-10T23:47:33.805Z,17.74
2023-06-10T23:50:38.157Z,17.70
2023-06-10T23:53:41.381Z,17.68
2023-06-10T23:56:44.550Z,17.66
2023-06-10T23:59:47.603Z,17.64
